createdAt,value
2023-02-24T00:02:05.714Z,79.30
2023-02-24T00:04:35.688Z,79.30
2023-02-24T00:07:03.048Z,79.30
2023-02-24T00:09:31.629Z,79.30
2023-02-24T00:12:04.698Z,79.20
2023-02-24T00:14:34.924Z,79.20
2023-02-24T00:17:02.396Z,79.20
2023-02-24T00:19:34.318Z,79.20
2023-02-24T00:22:03.453Z,79.10
2023-02-24T00:24:30.894Z,79.00
2023-02-24T00:27:00.527Z,78.90
2023-02-24T00:29:29.483Z,78.50
2023-02-24T00:32:00.246Z,78.40
2023-02-24T00:34:31.560Z,78.40
2023-02-24T00:36:59.202Z,78.30
2023-02-24T00:39:34.610Z,78.20
2023-02-24T00:42:06.281Z,78.10
2023-02-24T00:44:45.779Z,77.90
2023-02-24T00:47:16.506Z,77.80
2023-02-24T00:49:43.846Z,77.60
2023-02-24T00:52:16.035Z,77.50
2023-02-24T00:54:44.708Z,77.40
2023-02-24T00:57:12.357Z,77.40
2023-02-24T00:59:39.557Z,77.30
2023-02-24T01:02:07.675Z,77.30
2023-02-24T01:04:37.422Z,77.20
2023-02-24T01:07:10.858Z,77.20
2023-02-24T01:09:41.430Z,77.20
2023-02-24T01:12:22.446Z,77.10
2023-02-24T01:14:51.931Z,77.20
2023-02-24T01:17:20.130Z,77.30
2023-02-24T01:19:50.143Z,77.30
2023-02-24T01:22:19.580Z,77.40
2023-02-24T01:24:47.740Z,77.20
2023-02-24T01:27:19.956Z,77.10
2023-02-24T01:29:48.226Z,77.00
2023-02-24T01:32:20.940Z,76.90
2023-02-24T01:34:51.509Z,76.70
2023-02-24T01:37:19.547Z,76.70
2023-02-24T01:39:47.831Z,76.70
2023-02-24T01:42:17.080Z,76.80
2023-02-24T01:44:47.972Z,76.80
2023-02-24T01:47:18.586Z,76.80
2023-02-24T01:49:49.185Z,76.80
2023-02-24T01:52:28.120Z,76.80
2023-02-24T01:55:28.916Z,76.70
2023-02-24T01:57:58.043Z,76.70
2023-02-24T02:00:33.702Z,76.80
2023-02-24T02:03:05.074Z,76.80
2023-02-24T02:05:31.963Z,76.70
2023-02-24T02:08:00.431Z,76.80
2023-02-24T02:10:28.898Z,76.80
2023-02-24T02:12:56.474Z,76.80
2023-02-24T02:15:24.360Z,76.80
2023-02-24T02:18:06.772Z,76.80
2023-02-24T02:20:56.900Z,76.80
2023-02-24T02:23:35.836Z,76.90
2023-02-24T02:26:53.651Z,76.90
2023-02-24T02:29:42.434Z,77.10
2023-02-24T02:32:31.481Z,77.30
2023-02-24T02:35:19.096Z,77.20
2023-02-24T02:37:56.292Z,77.20
2023-02-24T02:40:29.014Z,77.20
2023-02-24T02:43:46.421Z,76.90
2023-02-24T02:46:17.736Z,76.90
2023-02-24T02:48:53.300Z,76.70
2023-02-24T02:51:29.655Z,76.50
2023-02-24T02:54:01.841Z,76.40
2023-02-24T02:56:33.980Z,76.20
2023-02-24T02:59:01.915Z,76.10
2023-02-24T03:01:33.910Z,76.20
2023-02-24T03:04:05.992Z,76.20
2023-02-24T03:06:47.788Z,76.30
2023-02-24T03:09:22.735Z,76.50
2023-02-24T03:11:55.586Z,76.70
2023-02-24T03:14:28.380Z,77.00
2023-02-24T03:16:56.971Z,77.20
2023-02-24T03:19:32.131Z,77.30
2023-02-24T03:22:07.060Z,77.30
2023-02-24T03:24:38.822Z,77.20
2023-02-24T03:27:39.792Z,77.10
2023-02-24T03:30:40.792Z,76.70
2023-02-24T03:33:21.500Z,76.70
2023-02-24T03:35:51.506Z,76.80
2023-02-24T03:38:20.006Z,76.90
2023-02-24T03:40:47.461Z,77.00
2023-02-24T03:43:33.806Z,77.20
2023-02-24T03:46:02.485Z,77.40
2023-02-24T03:48:30.523Z,77.40
2023-02-24T03:50:59.485Z,77.40
2023-02-24T03:54:12.488Z,77.50
2023-02-24T03:57:15.235Z,77.70
2023-02-24T04:00:22.888Z,77.80
2023-02-24T04:03:06.086Z,77.90
2023-02-24T04:05:47.380Z,78.10
2023-02-24T04:08:16.944Z,79.00
2023-02-24T04:10:57.431Z,78.20
2023-02-24T04:13:47.356Z,78.30
2023-02-24T04:16:30.102Z,78.30
2023-02-24T04:19:05.457Z,78.30
2023-02-24T04:21:37.620Z,78.40
2023-02-24T04:24:11.429Z,78.40
2023-02-24T04:26:40.482Z,78.50
2023-02-24T04:29:09.793Z,78.40
2023-02-24T04:31:39.082Z,78.40
2023-02-24T04:34:09.401Z,78.40
2023-02-24T04:36:38.781Z,78.50
2023-02-24T04:39:07.604Z,78.40
2023-02-24T04:41:35.748Z,78.60
2023-02-24T04:44:02.666Z,78.70
2023-02-24T04:46:32.335Z,78.60
2023-02-24T04:49:02.095Z,78.60
2023-02-24T04:51:31.875Z,78.50
2023-02-24T04:53:58.761Z,78.50
2023-02-24T04:56:25.671Z,78.40
2023-02-24T04:58:52.551Z,78.30
2023-02-24T05:01:19.702Z,78.30
2023-02-24T05:03:47.664Z,78.20
2023-02-24T05:06:17.156Z,78.30
2023-02-24T05:08:44.173Z,78.10
2023-02-24T05:11:19.370Z,78.10
2023-02-24T05:13:46.953Z,78.10
2023-02-24T05:16:17.665Z,78.10
2023-02-24T05:18:44.875Z,78.00
2023-02-24T05:21:35.900Z,78.00
2023-02-24T05:24:07.072Z,77.90
2023-02-24T05:26:41.574Z,77.70
2023-02-24T05:29:09.367Z,77.70
2023-02-24T05:31:37.297Z,77.60
2023-02-24T05:34:07.753Z,77.60
2023-02-24T05:36:39.433Z,77.50
2023-02-24T05:39:12.252Z,77.50
2023-02-24T05:41:42.087Z,77.50
2023-02-24T05:44:13.229Z,77.50
2023-02-24T05:46:42.905Z,77.50
2023-02-24T05:49:16.378Z,77.50
2023-02-24T05:51:54.359Z,77.50
2023-02-24T05:54:25.755Z,77.50
2023-02-24T05:56:52.657Z,77.50
2023-02-24T05:59:21.554Z,77.40
2023-02-24T06:01:53.184Z,77.30
2023-02-24T06:04:39.227Z,77.30
2023-02-24T06:07:24.966Z,77.30
2023-02-24T06:09:57.750Z,77.20
2023-02-24T06:12:28.164Z,77.30
2023-02-24T06:14:55.647Z,77.30
2023-02-24T06:17:23.019Z,77.30
2023-02-24T06:19:52.662Z,77.30
2023-02-24T06:22:22.843Z,77.30
2023-02-24T06:24:50.532Z,77.40
2023-02-24T06:27:19.636Z,77.50
2023-02-24T06:29:50.452Z,77.50
2023-02-24T06:32:19.420Z,77.50
2023-02-24T06:34:46.318Z,77.50
2023-02-24T06:37:14.977Z,77.50
2023-02-24T06:39:43.289Z,77.50
2023-02-24T06:42:11.952Z,77.70
2023-02-24T06:44:40.973Z,77.60
2023-02-24T06:47:10.991Z,77.60
2023-02-24T06:49:37.919Z,77.60
2023-02-24T06:52:05.926Z,77.70
2023-02-24T06:54:35.943Z,77.70
2023-02-24T06:57:03.751Z,77.70
2023-02-24T06:59:32.257Z,77.80
2023-02-24T07:02:01.985Z,77.80
2023-02-24T07:04:29.637Z,77.80
2023-02-24T07:07:03.507Z,77.70
2023-02-24T07:09:32.109Z,77.90
2023-02-24T07:12:02.658Z,77.90
2023-02-24T07:14:32.914Z,78.00
2023-02-24T07:17:00.348Z,78.30
2023-02-24T07:19:32.373Z,78.00
2023-02-24T07:22:02.140Z,78.00
2023-02-24T07:24:39.162Z,78.10
2023-02-24T07:27:21.686Z,78.20
2023-02-24T07:29:51.835Z,78.10
2023-02-24T07:32:22.366Z,78.10
2023-02-24T07:34:49.277Z,78.20
2023-02-24T07:37:16.795Z,78.20
2023-02-24T07:39:43.838Z,78.40
2023-02-24T07:42:15.067Z,78.40
2023-02-24T07:44:46.698Z,78.40
2023-02-24T07:47:15.894Z,78.60
2023-02-24T07:49:43.169Z,78.70
2023-02-24T07:52:11.605Z,78.50
2023-02-24T07:54:39.223Z,78.60
2023-02-24T07:57:06.604Z,78.50
2023-02-24T07:59:38.093Z,78.50
2023-02-24T08:02:07.760Z,78.50
2023-02-24T08:04:36.388Z,78.70
2023-02-24T08:07:04.302Z,78.60
2023-02-24T08:09:45.903Z,78.80
2023-02-24T08:12:18.041Z,79.80
2023-02-24T08:14:50.762Z,79.00
2023-02-24T08:17:23.747Z,79.20
2023-02-24T08:20:12.314Z,79.10
2023-02-24T08:22:43.932Z,79.40
2023-02-24T08:25:18.495Z,79.60
2023-02-24T08:28:06.345Z,79.80
2023-02-24T08:30:38.925Z,79.90
2023-02-24T08:33:11.927Z,80.40
2023-02-24T08:35:44.461Z,80.50
2023-02-24T08:38:15.843Z,80.70
2023-02-24T08:40:52.025Z,80.90
2023-02-24T08:43:30.963Z,81.10
2023-02-24T08:46:21.303Z,81.20
2023-02-24T08:48:57.509Z,81.40
2023-02-24T08:51:28.811Z,81.30
2023-02-24T08:53:58.824Z,81.30
2023-02-24T08:56:34.610Z,81.40
2023-02-24T08:59:06.893Z,81.60
2023-02-24T09:01:38.458Z,81.70
2023-02-24T09:04:13.376Z,81.80
2023-02-24T09:06:45.293Z,81.80
2023-02-24T09:09:18.820Z,82.00
2023-02-24T09:11:55.993Z,82.30
2023-02-24T09:14:28.901Z,82.40
2023-02-24T09:17:06.296Z,82.50
2023-02-24T09:22:31.419Z,82.80
2023-02-24T09:25:18.722Z,83.00
2023-02-24T09:27:52.522Z,83.20
2023-02-24T09:30:37.175Z,83.40
2023-02-24T09:33:09.023Z,83.90
2023-02-24T09:35:37.038Z,84.00
2023-02-24T09:38:07.667Z,84.30
2023-02-24T09:40:40.137Z,84.40
2023-02-24T09:43:17.626Z,84.70
2023-02-24T09:46:00.900Z,84.70
2023-02-24T09:48:43.696Z,85.00
2023-02-24T09:51:21.722Z,85.00
2023-02-24T09:53:53.781Z,85.00
2023-02-24T09:56:37.045Z,85.10
2023-02-24T09:59:27.316Z,85.20
2023-02-24T10:02:15.622Z,85.50
2023-02-24T10:05:07.137Z,85.90
2023-02-24T10:07:39.634Z,86.10
2023-02-24T10:10:19.809Z,86.50
2023-02-24T10:12:52.714Z,86.80
2023-02-24T10:15:47.396Z,87.00
2023-02-24T10:18:27.306Z,87.20
2023-02-24T10:21:20.085Z,87.40
2023-02-24T10:24:06.086Z,87.70
2023-02-24T10:27:00.064Z,88.00
2023-02-24T10:29:43.227Z,88.30
2023-02-24T10:32:47.115Z,88.40
2023-02-24T10:35:17.067Z,88.50
2023-02-24T10:37:44.583Z,88.90
2023-02-24T10:40:17.458Z,89.00
2023-02-24T10:42:48.880Z,89.40
2023-02-24T10:45:26.889Z,89.60
2023-02-24T10:47:59.389Z,89.60
2023-02-24T10:50:32.752Z,89.80
2023-02-24T10:53:26.731Z,89.90
2023-02-24T10:56:15.262Z,90.10
2023-02-24T10:58:52.651Z,90.00
2023-02-24T11:01:55.664Z,90.00
2023-02-24T11:04:32.954Z,90.10
2023-02-24T11:07:12.018Z,90.10
2023-02-24T11:09:52.665Z,90.10
2023-02-24T11:12:44.138Z,90.20
2023-02-24T11:15:40.620Z,90.20
2023-02-24T11:18:21.042Z,90.30
2023-02-24T11:20:52.441Z,90.30
2023-02-24T11:23:27.956Z,90.40
2023-02-24T11:26:00.814Z,90.40
2023-02-24T11:28:43.368Z,90.40
2023-02-24T11:31:34.926Z,90.60
2023-02-24T11:34:24.869Z,90.70
2023-02-24T11:37:16.259Z,90.80
2023-02-24T11:39:50.353Z,90.80
2023-02-24T11:42:26.435Z,90.90
2023-02-24T11:45:16.073Z,90.90
2023-02-24T11:47:48.779Z,90.90
2023-02-24T11:50:15.705Z,90.90
2023-02-24T11:52:46.897Z,90.90
2023-02-24T11:55:42.996Z,90.90
2023-02-24T11:58:28.096Z,90.80
2023-02-24T12:01:31.102Z,90.70
2023-02-24T12:04:30.358Z,90.80
2023-02-24T12:07:30.967Z,90.80
2023-02-24T12:10:16.013Z,90.70
2023-02-24T12:12:52.771Z,90.70
2023-02-24T12:15:28.469Z,90.70
2023-02-24T12:18:34.606Z,90.80
2023-02-24T12:21:09.111Z,91.10
2023-02-24T12:23:39.680Z,91.40
2023-02-24T12:26:28.751Z,91.40
2023-02-24T12:29:18.889Z,91.60
2023-02-24T12:32:30.712Z,91.50
2023-02-24T12:35:57.594Z,91.10
2023-02-24T12:38:44.129Z,90.80
2023-02-24T12:41:34.209Z,90.60
2023-02-24T12:44:01.738Z,90.60
2023-02-24T12:46:35.800Z,91.10
2023-02-24T12:49:10.430Z,90.30
2023-02-24T12:52:03.536Z,90.10
2023-02-24T12:54:36.700Z,89.30
2023-02-24T12:57:28.266Z,88.00
2023-02-24T12:59:58.056Z,86.70
2023-02-24T13:02:36.519Z,85.00
2023-02-24T13:05:06.436Z,84.30
2023-02-24T13:07:39.909Z,84.30
2023-02-24T13:10:22.052Z,83.40
2023-02-24T13:13:10.421Z,83.30
2023-02-24T13:15:37.321Z,83.70
2023-02-24T13:18:04.399Z,83.40
2023-02-24T13:20:38.016Z,83.00
2023-02-24T13:23:21.082Z,84.70
2023-02-24T13:25:53.611Z,86.20
2023-02-24T13:28:35.944Z,80.30
2023-02-24T13:31:02.677Z,78.80
2023-02-24T13:33:32.678Z,70.90
2023-02-24T13:36:26.064Z,70.90
2023-02-24T13:39:07.425Z,70.90
2023-02-24T13:41:40.974Z,72.40
2023-02-24T13:44:27.451Z,70.80
2023-02-24T13:47:12.934Z,70.00
2023-02-24T13:50:02.808Z,70.40
2023-02-24T13:52:48.322Z,71.10
2023-02-24T13:55:53.535Z,72.10
2023-02-24T13:58:32.063Z,72.90
2023-02-24T14:01:14.671Z,74.70
2023-02-24T14:03:44.566Z,75.90
2023-02-24T14:06:23.253Z,77.00
2023-02-24T14:08:54.311Z,78.10
2023-02-24T14:11:26.834Z,79.20
2023-02-24T14:13:56.361Z,81.00
2023-02-24T14:16:35.814Z,83.90
2023-02-24T14:19:03.616Z,84.70
2023-02-24T14:21:32.916Z,80.80
2023-02-24T14:24:03.005Z,77.10
2023-02-24T14:26:36.443Z,75.60
2023-02-24T14:29:03.778Z,75.50
2023-02-24T14:31:31.233Z,75.70
2023-02-24T14:34:01.619Z,76.40
2023-02-24T14:36:33.174Z,76.90
2023-02-24T14:39:17.794Z,77.50
2023-02-24T14:41:46.273Z,78.30
2023-02-24T14:44:23.611Z,78.10
2023-02-24T14:46:53.295Z,78.10
2023-02-24T14:49:25.556Z,77.30
2023-02-24T14:52:05.083Z,78.30
2023-02-24T14:54:48.968Z,78.40
2023-02-24T14:57:24.805Z,74.40
2023-02-24T14:59:57.581Z,71.50
2023-02-24T15:02:32.837Z,71.00
2023-02-24T15:05:00.360Z,71.20
2023-02-24T15:07:32.043Z,70.40
2023-02-24T15:10:00.808Z,70.50
2023-02-24T15:12:34.583Z,71.30
2023-02-24T15:15:23.442Z,70.50
2023-02-24T15:17:56.732Z,70.90
2023-02-24T15:20:37.684Z,70.80
2023-02-24T15:23:05.419Z,70.60
2023-02-24T15:25:44.697Z,71.90
2023-02-24T15:28:27.040Z,71.90
2023-02-24T15:31:01.002Z,73.50
2023-02-24T15:33:34.137Z,74.70
2023-02-24T15:36:05.369Z,74.70
2023-02-24T15:38:38.314Z,74.30
2023-02-24T15:41:07.925Z,73.70
2023-02-24T15:43:37.301Z,73.20
2023-02-24T15:46:33.209Z,72.40
2023-02-24T15:49:04.552Z,71.70
2023-02-24T15:51:39.922Z,70.10
2023-02-24T15:54:11.000Z,70.80
2023-02-24T15:56:37.875Z,70.80
2023-02-24T15:59:06.017Z,71.10
2023-02-24T16:01:33.617Z,71.40
2023-02-24T16:04:01.548Z,71.00
2023-02-24T16:06:28.969Z,71.10
2023-02-24T16:08:57.484Z,71.40
2023-02-24T16:11:28.790Z,72.00
2023-02-24T16:13:58.188Z,72.50
2023-02-24T16:16:26.616Z,73.10
2023-02-24T16:18:54.051Z,73.60
2023-02-24T16:21:21.147Z,73.80
2023-02-24T16:23:48.646Z,74.40
2023-02-24T16:26:20.867Z,75.20
2023-02-24T16:28:55.912Z,75.80
2023-02-24T16:31:24.679Z,76.20
2023-02-24T16:33:55.352Z,76.80
2023-02-24T16:36:25.258Z,76.80
2023-02-24T16:38:52.522Z,76.30
2023-02-24T16:41:19.666Z,76.10
2023-02-24T16:43:46.621Z,76.10
2023-02-24T16:46:16.787Z,76.20
2023-02-24T16:48:46.817Z,76.30
2023-02-24T16:51:14.776Z,76.30
2023-02-24T16:53:41.692Z,76.40
2023-02-24T16:56:09.371Z,76.60
2023-02-24T16:58:36.316Z,76.80
2023-02-24T17:01:05.274Z,77.20
2023-02-24T17:03:37.419Z,77.40
2023-02-24T17:06:04.438Z,77.50
2023-02-24T17:08:31.765Z,77.90
2023-02-24T17:10:58.725Z,78.00
2023-02-24T17:13:25.627Z,78.50
2023-02-24T17:15:55.372Z,79.00
2023-02-24T17:18:23.534Z,79.50
2023-02-24T17:20:50.479Z,79.20
2023-02-24T17:23:17.395Z,78.80
2023-02-24T17:25:44.959Z,79.00
2023-02-24T17:28:11.893Z,78.90
2023-02-24T17:30:39.611Z,78.50
2023-02-24T17:33:07.340Z,78.50
2023-02-24T17:35:34.295Z,78.50
2023-02-24T17:38:01.253Z,78.50
2023-02-24T17:40:28.137Z,78.60
2023-02-24T17:42:55.100Z,78.60
2023-02-24T17:45:22.077Z,78.60
2023-02-24T17:47:48.911Z,78.60
2023-02-24T17:50:16.664Z,78.60
2023-02-24T17:52:43.714Z,78.60
2023-02-24T17:55:10.903Z,78.80
2023-02-24T17:57:39.599Z,78.90
2023-02-24T18:00:08.189Z,79.00
2023-02-24T18:02:41.095Z,78.90
2023-02-24T18:05:09.095Z,79.00
2023-02-24T18:07:36.570Z,79.10
2023-02-24T18:10:03.846Z,78.00
2023-02-24T18:12:31.345Z,77.20
2023-02-24T18:15:07.698Z,76.70
2023-02-24T18:17:35.742Z,76.80
2023-02-24T18:20:03.465Z,76.50
2023-02-24T18:22:30.335Z,76.10
2023-02-24T18:24:57.505Z,76.30
2023-02-24T18:27:24.385Z,76.20
2023-02-24T18:29:51.228Z,76.00
2023-02-24T18:32:18.231Z,76.20
2023-02-24T18:34:45.256Z,76.50
2023-02-24T18:37:12.314Z,76.60
2023-02-24T18:39:39.164Z,76.90
2023-02-24T18:42:06.133Z,77.00
2023-02-24T18:44:32.966Z,77.20
2023-02-24T18:46:59.913Z,77.30
2023-02-24T18:49:26.926Z,77.40
2023-02-24T18:51:53.855Z,77.40
2023-02-24T18:54:20.806Z,77.50
2023-02-24T18:56:47.780Z,77.60
2023-02-24T18:59:14.635Z,77.50
2023-02-24T19:01:41.499Z,77.50
2023-02-24T19:04:08.582Z,77.40
2023-02-24T19:06:36.372Z,77.40
2023-02-24T19:09:12.094Z,77.30
2023-02-24T19:11:40.865Z,77.10
2023-02-24T19:14:09.430Z,77.00
2023-02-24T19:16:37.897Z,77.00
2023-02-24T19:19:05.230Z,77.00
2023-02-24T19:21:33.524Z,77.60
2023-02-24T19:24:03.503Z,76.40
2023-02-24T19:26:30.811Z,76.70
2023-02-24T19:28:58.812Z,76.40
2023-02-24T19:31:30.647Z,76.40
2023-02-24T19:34:00.762Z,76.40
2023-02-24T19:36:29.112Z,76.40
2023-02-24T19:38:56.229Z,76.40
2023-02-24T19:41:23.456Z,76.30
2023-02-24T19:43:51.478Z,76.40
2023-02-24T19:46:18.893Z,76.30
2023-02-24T19:48:46.037Z,76.40
2023-02-24T19:51:22.455Z,76.40
2023-02-24T19:53:53.446Z,76.40
2023-02-24T19:56:28.978Z,76.20
2023-02-24T19:58:57.317Z,76.20
2023-02-24T20:01:25.512Z,76.20
2023-02-24T20:03:59.531Z,76.20
2023-02-24T20:06:36.025Z,76.10
2023-02-24T20:09:06.586Z,76.10
2023-02-24T20:11:38.773Z,75.70
2023-02-24T20:14:06.135Z,75.80
2023-02-24T20:16:34.690Z,75.90
2023-02-24T20:19:02.688Z,75.80
2023-02-24T20:21:31.045Z,75.70
2023-02-24T20:24:02.562Z,75.80
2023-02-24T20:26:30.348Z,75.90
2023-02-24T20:28:58.687Z,75.70
2023-02-24T20:31:25.839Z,75.60
2023-02-24T20:33:53.140Z,75.80
2023-02-24T20:36:26.869Z,75.90
2023-02-24T20:38:59.202Z,75.70
2023-02-24T20:41:27.168Z,75.80
2023-02-24T20:43:55.172Z,76.00
2023-02-24T20:46:28.728Z,75.80
2023-02-24T20:49:01.224Z,75.70
2023-02-24T20:51:30.121Z,75.10
2023-02-24T20:53:58.640Z,75.30
2023-02-24T20:56:32.899Z,75.40
2023-02-24T20:59:02.547Z,75.40
2023-02-24T21:01:31.113Z,75.20
2023-02-24T21:03:58.538Z,75.40
2023-02-24T21:06:26.053Z,75.40
2023-02-24T21:08:53.469Z,75.40
2023-02-24T21:11:21.570Z,75.20
2023-02-24T21:13:52.291Z,75.10
2023-02-24T21:16:20.538Z,75.00
2023-02-24T21:18:49.562Z,74.90
2023-02-24T21:21:17.178Z,75.10
2023-02-24T21:23:44.110Z,74.60
2023-02-24T21:26:12.086Z,74.90
2023-02-24T21:28:40.354Z,74.90
2023-02-24T21:31:13.179Z,75.30
2023-02-24T21:33:40.632Z,75.70
2023-02-24T21:36:11.281Z,76.20
2023-02-24T21:38:38.368Z,76.20
2023-02-24T21:41:08.183Z,76.50
2023-02-24T21:43:35.406Z,76.70
2023-02-24T21:46:08.999Z,76.90
2023-02-24T21:48:37.047Z,76.90
2023-02-24T21:51:06.451Z,77.10
2023-02-24T21:53:35.669Z,77.20
2023-02-24T21:56:06.534Z,77.10
2023-02-24T21:58:33.599Z,76.90
2023-02-24T22:01:00.410Z,77.00
2023-02-24T22:03:28.096Z,77.00
2023-02-24T22:05:55.113Z,77.00
2023-02-24T22:08:22.127Z,76.80
2023-02-24T22:10:58.712Z,76.60
2023-02-24T22:13:26.220Z,76.70
2023-02-24T22:15:53.342Z,76.70
2023-02-24T22:18:21.257Z,76.80
2023-02-24T22:20:48.202Z,76.90
2023-02-24T22:23:15.156Z,77.10
2023-02-24T22:25:42.011Z,77.20
2023-02-24T22:28:08.907Z,77.50
2023-02-24T22:30:35.885Z,77.90
2023-02-24T22:33:02.803Z,78.30
2023-02-24T22:35:29.686Z,78.40
2023-02-24T22:37:56.582Z,78.60
2023-02-24T22:40:23.458Z,78.70
2023-02-24T22:42:50.291Z,78.80
2023-02-24T22:45:17.156Z,78.70
2023-02-24T22:47:44.064Z,78.80
2023-02-24T22:50:11.414Z,78.70
2023-02-24T22:52:38.403Z,78.60
2023-02-24T22:55:05.573Z,78.70
2023-02-24T22:57:34.041Z,78.70
2023-02-24T23:00:00.936Z,78.80
2023-02-24T23:02:27.858Z,79.10
2023-02-24T23:04:54.711Z,79.30
2023-02-24T23:07:21.624Z,79.60
2023-02-24T23:09:52.952Z,79.70
2023-02-24T23:12:22.128Z,79.80
2023-02-24T23:14:49.213Z,80.00
2023-02-24T23:17:16.058Z,80.10
2023-02-24T23:19:42.889Z,80.10
2023-02-24T23:22:09.765Z,80.30
2023-02-24T23:24:36.594Z,80.10
2023-02-24T23:27:03.760Z,80.10
2023-02-24T23:29:30.813Z,79.90
2023-02-24T23:31:58.362Z,79.70
2023-02-24T23:34:26.518Z,79.50
2023-02-24T23:36:53.411Z,79.50
2023-02-24T23:39:23.624Z,79.50
2023-02-24T23:41:56.699Z,79.80
2023-02-24T23:44:23.933Z,80.00
2023-02-24T23:46:50.863Z,80.10
2023-02-24T23:49:17.708Z,80.00
2023-02-24T23:51:48.974Z,80.00
2023-02-24T23:54:18.111Z,80.90
2023-02-24T23:56:46.434Z,80.00
2023-02-24T23:59:13.696Z,80.00
